sensor_id;sensor_type;location;lat;lon;timestamp;pressure;altitude;pressure_sealevel;temperature;humidity
41334;BME280;27078;46.428;6.256;2023-08-01T00:02:10;95897.78;;;20.41;96.11
41334;BME280;27078;46.428;6.256;2023-08-01T00:04:35;95899.63;;;20.47;96.94
41334;BME280;27078;46.428;6.256;2023-08-01T00:07:00;95894.03;;;20.48;91.18
41334;BME280;27078;46.428;6.256;2023-08-01T00:09:26;95899.16;;;20.57;90.65
41334;BME280;27078;46.428;6.256;2023-08-01T00:11:51;95897.94;;;20.66;89.61
41334;BME280;27078;46.428;6.256;2023-08-01T00:14:16;95899.75;;;20.72;86.64
41334;BME280;27078;46.428;6.256;2023-08-01T00:16:42;95896.81;;;20.80;89.87
41334;BME280;27078;46.428;6.256;2023-08-01T00:19:08;95887.56;;;20.76;90.03
41334;BME280;27078;46.428;6.256;2023-08-01T00:21:33;95878.59;;;20.89;91.09
41334;BME280;27078;46.428;6.256;2023-08-01T00:23:58;95878.28;;;20.79;91.35
41334;BME280;27078;46.428;6.256;2023-08-01T00:26:23;95877.44;;;20.78;93.16
41334;BME280;27078;46.428;6.256;2023-08-01T00:28:49;95868.00;;;20.69;94.90
41334;BME280;27078;46.428;6.256;2023-08-01T00:31:14;95875.84;;;20.70;86.18
41334;BME280;27078;46.428;6.256;2023-08-01T00:33:39;95870.03;;;20.73;87.98
41334;BME280;27078;46.428;6.256;2023-08-01T00:36:05;95858.84;;;20.83;83.86
41334;BME280;27078;46.428;6.256;2023-08-01T00:38:35;95863.09;;;20.98;83.92
41334;BME280;27078;46.428;6.256;2023-08-01T00:41:01;95856.03;;;21.03;82.86
41334;BME280;27078;46.428;6.256;2023-08-01T00:43:26;95853.66;;;21.20;73.08
41334;BME280;27078;46.428;6.256;2023-08-01T00:45:58;95840.72;;;21.35;72.21
41334;BME280;27078;46.428;6.256;2023-08-01T00:48:24;95841.69;;;21.48;70.56
41334;BME280;27078;46.428;6.256;2023-08-01T00:50:50;95829.41;;;21.59;69.27
41334;BME280;27078;46.428;6.256;2023-08-01T00:53:16;95842.50;;;21.73;67.30
41334;BME280;27078;46.428;6.256;2023-08-01T00:55:43;95835.38;;;21.86;67.02
41334;BME280;27078;46.428;6.256;2023-08-01T00:58:08;95833.94;;;21.83;69.03
41334;BME280;27078;46.428;6.256;2023-08-01T01:00:33;95834.56;;;21.85;68.64
41334;BME280;27078;46.428;6.256;2023-08-01T01:03:00;95827.09;;;21.87;68.13
41334;BME280;27078;46.428;6.256;2023-08-01T01:05:27;95824.19;;;21.89;68.45
41334;BME280;27078;46.428;6.256;2023-08-01T01:07:57;95819.84;;;21.88;68.33
41334;BME280;27078;46.428;6.256;2023-08-01T01:10:22;95823.06;;;21.78;68.47
41334;BME280;27078;46.428;6.256;2023-08-01T01:12:47;95822.66;;;21.74;68.02
41334;BME280;27078;46.428;6.256;2023-08-01T01:15:13;95825.06;;;21.83;65.41
41334;BME280;27078;46.428;6.256;2023-08-01T01:17:38;95816.13;;;21.89;64.50
41334;BME280;27078;46.428;6.256;2023-08-01T01:20:04;95825.00;;;21.89;64.28
41334;BME280;27078;46.428;6.256;2023-08-01T01:22:30;95812.84;;;21.87;63.27
41334;BME280;27078;46.428;6.256;2023-08-01T01:24:55;95815.53;;;21.87;62.46
41334;BME280;27078;46.428;6.256;2023-08-01T01:27:22;95803.88;;;21.93;63.70
41334;BME280;27078;46.428;6.256;2023-08-01T01:29:48;95815.94;;;21.84;63.49
41334;BME280;27078;46.428;6.256;2023-08-01T01:32:15;95818.03;;;21.82;63.83
41334;BME280;27078;46.428;6.256;2023-08-01T01:34:40;95824.63;;;21.86;63.53
41334;BME280;27078;46.428;6.256;2023-08-01T01:37:06;95818.81;;;21.89;62.67
41334;BME280;27078;46.428;6.256;2023-08-01T01:39:31;95815.06;;;21.90;64.51
41334;BME280;27078;46.428;6.256;2023-08-01T01:41:56;95801.03;;;21.88;63.80
41334;BME280;27078;46.428;6.256;2023-08-01T01:44:22;95812.59;;;21.88;63.71
41334;BME280;27078;46.428;6.256;2023-08-01T01:46:47;95810.22;;;21.80;64.91
41334;BME280;27078;46.428;6.256;2023-08-01T01:49:14;95816.84;;;21.78;64.54
41334;BME280;27078;46.428;6.256;2023-08-01T01:51:40;95802.44;;;21.72;64.67
41334;BME280;27078;46.428;6.256;2023-08-01T01:54:05;95804.38;;;21.83;64.74
41334;BME280;27078;46.428;6.256;2023-08-01T01:56:30;95809.75;;;21.83;64.14
41334;BME280;27078;46.428;6.256;2023-08-01T01:58:56;95796.31;;;21.83;62.28
41334;BME280;27078;46.428;6.256;2023-08-01T02:01:21;95795.66;;;21.88;63.10
41334;BME280;27078;46.428;6.256;2023-08-01T02:03:46;95793.56;;;21.90;62.80
41334;BME280;27078;46.428;6.256;2023-08-01T02:06:12;95797.47;;;22.12;59.44
41334;BME280;27078;46.428;6.256;2023-08-01T02:08:37;95796.41;;;22.13;60.80
41334;BME280;27078;46.428;6.256;2023-08-01T02:11:02;95797.16;;;22.21;60.23
41334;BME280;27078;46.428;6.256;2023-08-01T02:13:28;95796.72;;;22.24;59.32
41334;BME280;27078;46.428;6.256;2023-08-01T02:15:54;95795.25;;;22.28;59.71
41334;BME280;27078;46.428;6.256;2023-08-01T02:18:19;95794.84;;;22.24;62.03
41334;BME280;27078;46.428;6.256;2023-08-01T02:20:45;95792.59;;;22.21;59.69
41334;BME280;27078;46.428;6.256;2023-08-01T02:23:10;95785.06;;;22.30;58.05
41334;BME280;27078;46.428;6.256;2023-08-01T02:25:42;95795.53;;;22.38;58.47
41334;BME280;27078;46.428;6.256;2023-08-01T02:28:07;95798.72;;;22.47;57.30
41334;BME280;27078;46.428;6.256;2023-08-01T02:30:34;95780.41;;;22.55;56.32
41334;BME280;27078;46.428;6.256;2023-08-01T02:32:59;95771.28;;;22.56;57.09
41334;BME280;27078;46.428;6.256;2023-08-01T02:35:24;95761.72;;;22.61;58.15
41334;BME280;27078;46.428;6.256;2023-08-01T02:37:50;95755.16;;;22.56;58.70
41334;BME280;27078;46.428;6.256;2023-08-01T02:40:15;95769.50;;;22.50;57.52
41334;BME280;27078;46.428;6.256;2023-08-01T02:42:41;95756.97;;;22.44;59.53
41334;BME280;27078;46.428;6.256;2023-08-01T02:45:06;95753.19;;;22.33;59.70
41334;BME280;27078;46.428;6.256;2023-08-01T02:47:32;95763.56;;;22.30;60.44
41334;BME280;27078;46.428;6.256;2023-08-01T02:49:57;95760.97;;;22.23;62.10
41334;BME280;27078;46.428;6.256;2023-08-01T02:52:22;95753.25;;;22.08;65.21
41334;BME280;27078;46.428;6.256;2023-08-01T02:54:48;95759.97;;;21.99;66.28
41334;BME280;27078;46.428;6.256;2023-08-01T02:57:13;95762.13;;;21.90;68.38
41334;BME280;27078;46.428;6.256;2023-08-01T02:59:38;95761.84;;;21.80;68.63
41334;BME280;27078;46.428;6.256;2023-08-01T03:02:04;95755.78;;;21.66;69.11
41334;BME280;27078;46.428;6.256;2023-08-01T03:04:29;95758.53;;;21.60;69.31
41334;BME280;27078;46.428;6.256;2023-08-01T03:06:54;95760.03;;;21.55;69.32
41334;BME280;27078;46.428;6.256;2023-08-01T03:09:20;95760.69;;;21.51;70.12
41334;BME280;27078;46.428;6.256;2023-08-01T03:11:45;95766.53;;;21.41;70.74
41334;BME280;27078;46.428;6.256;2023-08-01T03:14:10;95764.06;;;21.40;71.23
41334;BME280;27078;46.428;6.256;2023-08-01T03:16:35;95756.00;;;21.40;72.10
41334;BME280;27078;46.428;6.256;2023-08-01T03:19:01;95760.56;;;21.39;73.02
41334;BME280;27078;46.428;6.256;2023-08-01T03:21:32;95766.81;;;21.33;72.60
41334;BME280;27078;46.428;6.256;2023-08-01T03:23:57;95764.94;;;21.33;73.33
41334;BME280;27078;46.428;6.256;2023-08-01T03:26:22;95773.00;;;21.33;71.42
41334;BME280;27078;46.428;6.256;2023-08-01T03:28:48;95768.28;;;21.29;70.31
41334;BME280;27078;46.428;6.256;2023-08-01T03:31:13;95767.91;;;21.25;69.75
41334;BME280;27078;46.428;6.256;2023-08-01T03:33:39;95766.06;;;21.26;70.96
41334;BME280;27078;46.428;6.256;2023-08-01T03:36:04;95754.03;;;21.28;69.75
41334;BME280;27078;46.428;6.256;2023-08-01T03:38:30;95748.88;;;21.27;70.78
41334;BME280;27078;46.428;6.256;2023-08-01T03:40:55;95748.34;;;21.18;71.92
41334;BME280;27078;46.428;6.256;2023-08-01T03:43:20;95759.13;;;21.11;71.05
41334;BME280;27078;46.428;6.256;2023-08-01T03:45:49;95762.81;;;21.17;70.34
41334;BME280;27078;46.428;6.256;2023-08-01T03:48:14;95762.59;;;21.19;69.96
41334;BME280;27078;46.428;6.256;2023-08-01T03:50:39;95765.25;;;21.19;69.74
41334;BME280;27078;46.428;6.256;2023-08-01T03:53:05;95776.00;;;21.19;70.01
41334;BME280;27078;46.428;6.256;2023-08-01T03:55:30;95772.50;;;21.18;70.28
41334;BME280;27078;46.428;6.256;2023-08-01T03:57:55;95770.63;;;21.19;70.34
41334;BME280;27078;46.428;6.256;2023-08-01T04:00:21;95756.84;;;21.15;69.79
41334;BME280;27078;46.428;6.256;2023-08-01T04:02:46;95746.47;;;21.19;69.79
41334;BME280;27078;46.428;6.256;2023-08-01T04:05:12;95738.06;;;21.15;70.13
41334;BME280;27078;46.428;6.256;2023-08-01T04:07:38;95734.31;;;21.16;70.21
41334;BME280;27078;46.428;6.256;2023-08-01T04:10:04;95740.16;;;21.13;70.97
41334;BME280;27078;46.428;6.256;2023-08-01T04:12:33;95744.44;;;21.14;70.54
41334;BME280;27078;46.428;6.256;2023-08-01T04:14:59;95744.44;;;21.14;71.07
41334;BME280;27078;46.428;6.256;2023-08-01T04:17:25;95757.72;;;21.09;71.96
41334;BME280;27078;46.428;6.256;2023-08-01T04:19:50;95757.13;;;21.07;72.17
41334;BME280;27078;46.428;6.256;2023-08-01T04:22:16;95753.84;;;21.05;72.16
41334;BME280;27078;46.428;6.256;2023-08-01T04:24:41;95750.53;;;21.03;72.83
41334;BME280;27078;46.428;6.256;2023-08-01T04:27:07;95748.88;;;21.02;73.09
41334;BME280;27078;46.428;6.256;2023-08-01T04:29:32;95746.03;;;20.97;73.36
41334;BME280;27078;46.428;6.256;2023-08-01T04:31:57;95747.72;;;20.98;72.04
41334;BME280;27078;46.428;6.256;2023-08-01T04:34:23;95753.22;;;21.03;71.07
41334;BME280;27078;46.428;6.256;2023-08-01T04:36:48;95746.66;;;20.99;72.04
41334;BME280;27078;46.428;6.256;2023-08-01T04:39:13;95750.75;;;21.01;71.62
41334;BME280;27078;46.428;6.256;2023-08-01T04:41:39;95769.78;;;21.00;71.77
41334;BME280;27078;46.428;6.256;2023-08-01T04:44:04;95779.91;;;20.98;72.93
41334;BME280;27078;46.428;6.256;2023-08-01T04:46:29;95774.53;;;20.98;72.79
41334;BME280;27078;46.428;6.256;2023-08-01T04:48:55;95748.47;;;21.05;63.61
41334;BME280;27078;46.428;6.256;2023-08-01T04:51:20;95746.78;;;21.10;60.34
41334;BME280;27078;46.428;6.256;2023-08-01T04:53:45;95750.81;;;21.20;59.01
41334;BME280;27078;46.428;6.256;2023-08-01T04:56:11;95752.22;;;21.22;61.33
41334;BME280;27078;46.428;6.256;2023-08-01T04:58:36;95758.66;;;21.21;62.15
41334;BME280;27078;46.428;6.256;2023-08-01T05:01:01;95745.06;;;21.16;61.49
41334;BME280;27078;46.428;6.256;2023-08-01T05:03:27;95728.34;;;21.14;61.74
41334;BME280;27078;46.428;6.256;2023-08-01T05:05:52;95725.84;;;21.19;62.49
41334;BME280;27078;46.428;6.256;2023-08-01T05:08:17;95727.94;;;21.17;63.03
41334;BME280;27078;46.428;6.256;2023-08-01T05:10:43;95729.81;;;21.10;65.35
41334;BME280;27078;46.428;6.256;2023-08-01T05:13:08;95742.03;;;21.06;66.22
41334;BME280;27078;46.428;6.256;2023-08-01T05:15:33;95749.28;;;21.05;64.97
41334;BME280;27078;46.428;6.256;2023-08-01T05:17:59;95739.34;;;21.06;65.08
41334;BME280;27078;46.428;6.256;2023-08-01T05:20:24;95741.63;;;21.09;67.21
41334;BME280;27078;46.428;6.256;2023-08-01T05:22:55;95739.31;;;21.12;67.45
41334;BME280;27078;46.428;6.256;2023-08-01T05:25:21;95728.13;;;21.15;67.28
41334;BME280;27078;46.428;6.256;2023-08-01T05:27:46;95722.97;;;21.14;66.64
41334;BME280;27078;46.428;6.256;2023-08-01T05:30:11;95727.53;;;21.13;68.15
41334;BME280;27078;46.428;6.256;2023-08-01T05:32:38;95727.75;;;21.12;67.80
41334;BME280;27078;46.428;6.256;2023-08-01T05:35:06;95727.31;;;21.15;67.19
41334;BME280;27078;46.428;6.256;2023-08-01T05:37:31;95731.63;;;21.16;68.06
41334;BME280;27078;46.428;6.256;2023-08-01T05:39:56;95745.06;;;21.16;68.65
41334;BME280;27078;46.428;6.256;2023-08-01T05:42:22;95741.56;;;21.15;68.94
41334;BME280;27078;46.428;6.256;2023-08-01T05:44:47;95744.09;;;21.10;68.17
41334;BME280;27078;46.428;6.256;2023-08-01T05:47:12;95736.84;;;21.11;69.97
41334;BME280;27078;46.428;6.256;2023-08-01T05:49:38;95733.16;;;21.05;71.66
41334;BME280;27078;46.428;6.256;2023-08-01T05:52:03;95750.53;;;21.03;71.99
41334;BME280;27078;46.428;6.256;2023-08-01T05:54:29;95756.94;;;21.02;71.18
41334;BME280;27078;46.428;6.256;2023-08-01T05:56:54;95756.94;;;21.02;71.56
41334;BME280;27078;46.428;6.256;2023-08-01T05:59:19;95750.53;;;21.03;71.71
41334;BME280;27078;46.428;6.256;2023-08-01T06:01:45;95751.16;;;21.05;70.19
41334;BME280;27078;46.428;6.256;2023-08-01T06:04:10;95761.28;;;21.03;70.65
41334;BME280;27078;46.428;6.256;2023-08-01T06:06:36;95758.75;;;21.08;71.95
41334;BME280;27078;46.428;6.256;2023-08-01T06:09:01;95759.59;;;21.08;72.06
41334;BME280;27078;46.428;6.256;2023-08-01T06:11:27;95767.84;;;21.07;66.02
41334;BME280;27078;46.428;6.256;2023-08-01T06:13:53;95766.16;;;21.12;61.03
41334;BME280;27078;46.428;6.256;2023-08-01T06:16:18;95763.25;;;21.14;60.31
41334;BME280;27078;46.428;6.256;2023-08-01T06:18:43;95772.97;;;21.15;60.63
41334;BME280;27078;46.428;6.256;2023-08-01T06:21:09;95790.47;;;21.18;60.69
41334;BME280;27078;46.428;6.256;2023-08-01T06:23:34;95801.44;;;21.16;61.93
41334;BME280;27078;46.428;6.256;2023-08-01T06:25:59;95788.63;;;21.18;62.88
41334;BME280;27078;46.428;6.256;2023-08-01T06:28:24;95783.09;;;21.13;64.86
41334;BME280;27078;46.428;6.256;2023-08-01T06:30:50;95800.22;;;21.12;64.13
41334;BME280;27078;46.428;6.256;2023-08-01T06:33:15;95805.44;;;21.07;65.55
41334;BME280;27078;46.428;6.256;2023-08-01T06:35:40;95818.34;;;20.91;75.92
41334;BME280;27078;46.428;6.256;2023-08-01T06:38:06;95827.19;;;20.53;87.71
41334;BME280;27078;46.428;6.256;2023-08-01T06:40:31;95808.34;;;20.22;92.03
41334;BME280;27078;46.428;6.256;2023-08-01T06:42:56;95798.91;;;20.06;97.77
41334;BME280;27078;46.428;6.256;2023-08-01T06:45:22;95801.41;;;19.87;97.07
41334;BME280;27078;46.428;6.256;2023-08-01T06:47:47;95801.44;;;19.81;96.62
41334;BME280;27078;46.428;6.256;2023-08-01T06:50:13;95795.50;;;19.72;100.00
41334;BME280;27078;46.428;6.256;2023-08-01T06:52:38;95805.78;;;19.68;100.00
41334;BME280;27078;46.428;6.256;2023-08-01T06:55:04;95809.69;;;19.66;100.00
41334;BME280;27078;46.428;6.256;2023-08-01T06:57:29;95797.53;;;19.63;100.00
41334;BME280;27078;46.428;6.256;2023-08-01T06:59:55;95805.16;;;19.66;100.00
41334;BME280;27078;46.428;6.256;2023-08-01T07:02:20;95801.66;;;19.72;98.04
41334;BME280;27078;46.428;6.256;2023-08-01T07:04:46;95795.28;;;19.80;94.83
41334;BME280;27078;46.428;6.256;2023-08-01T07:07:11;95790.31;;;19.90;93.85
41334;BME280;27078;46.428;6.256;2023-08-01T07:09:37;95777.25;;;20.07;83.90
41334;BME280;27078;46.428;6.256;2023-08-01T07:12:02;95784.84;;;20.24;80.73
41334;BME280;27078;46.428;6.256;2023-08-01T07:14:28;95793.81;;;20.36;78.68
41334;BME280;27078;46.428;6.256;2023-08-01T07:16:53;95794.00;;;20.48;79.62
41334;BME280;27078;46.428;6.256;2023-08-01T07:19:18;95791.50;;;20.60;78.23
41334;BME280;27078;46.428;6.256;2023-08-01T07:21:44;95796.97;;;20.71;80.12
41334;BME280;27078;46.428;6.256;2023-08-01T07:24:14;95796.06;;;20.84;78.24
41334;BME280;27078;46.428;6.256;2023-08-01T07:26:40;95793.09;;;20.99;77.68
41334;BME280;27078;46.428;6.256;2023-08-01T07:29:05;95798.00;;;21.09;73.46
41334;BME280;27078;46.428;6.256;2023-08-01T07:31:33;95815.47;;;21.18;76.28
41334;BME280;27078;46.428;6.256;2023-08-01T07:33:58;95801.16;;;21.24;76.53
41334;BME280;27078;46.428;6.256;2023-08-01T07:36:24;95811.47;;;21.27;80.33
41334;BME280;27078;46.428;6.256;2023-08-01T07:38:49;95801.94;;;21.31;75.40
41334;BME280;27078;46.428;6.256;2023-08-01T07:41:14;95815.31;;;21.38;75.66
41334;BME280;27078;46.428;6.256;2023-08-01T07:43:40;95820.44;;;21.40;75.31
41334;BME280;27078;46.428;6.256;2023-08-01T07:46:05;95826.44;;;21.42;75.64
41334;BME280;27078;46.428;6.256;2023-08-01T07:48:31;95833.06;;;21.39;75.38
41334;BME280;27078;46.428;6.256;2023-08-01T07:50:56;95824.19;;;21.39;76.89
41334;BME280;27078;46.428;6.256;2023-08-01T07:53:21;95835.00;;;21.32;73.22
41334;BME280;27078;46.428;6.256;2023-08-01T07:55:47;95831.50;;;21.25;74.70
41334;BME280;27078;46.428;6.256;2023-08-01T07:58:12;95826.00;;;21.20;75.42
41334;BME280;27078;46.428;6.256;2023-08-01T08:00:37;95829.06;;;21.23;75.40
41334;BME280;27078;46.428;6.256;2023-08-01T08:03:03;95827.00;;;21.25;71.71
41334;BME280;27078;46.428;6.256;2023-08-01T08:05:28;95814.59;;;21.24;69.42
41334;BME280;27078;46.428;6.256;2023-08-01T08:07:53;95825.94;;;21.26;69.90
41334;BME280;27078;46.428;6.256;2023-08-01T08:10:19;95821.63;;;21.25;69.63
41334;BME280;27078;46.428;6.256;2023-08-01T08:12:44;95820.78;;;21.25;69.55
41334;BME280;27078;46.428;6.256;2023-08-01T08:15:09;95825.31;;;21.24;71.46
41334;BME280;27078;46.428;6.256;2023-08-01T08:17:35;95829.69;;;21.25;70.35
41334;BME280;27078;46.428;6.256;2023-08-01T08:20:00;95828.81;;;21.25;70.36
41334;BME280;27078;46.428;6.256;2023-08-01T08:22:26;95828.19;;;21.29;72.23
41334;BME280;27078;46.428;6.256;2023-08-01T08:24:52;95842.50;;;21.23;73.63
41334;BME280;27078;46.428;6.256;2023-08-01T08:27:17;95845.19;;;21.23;73.16
41334;BME280;27078;46.428;6.256;2023-08-01T08:29:42;95841.69;;;21.16;74.07
41334;BME280;27078;46.428;6.256;2023-08-01T08:32:08;95837.19;;;21.10;78.15
41334;BME280;27078;46.428;6.256;2023-08-01T08:34:33;95845.09;;;21.05;81.07
41334;BME280;27078;46.428;6.256;2023-08-01T08:36:58;95843.88;;;21.01;80.04
41334;BME280;27078;46.428;6.256;2023-08-01T08:39:24;95849.25;;;21.01;80.48
41334;BME280;27078;46.428;6.256;2023-08-01T08:41:51;95865.13;;;21.02;81.14
41334;BME280;27078;46.428;6.256;2023-08-01T08:44:20;95844.47;;;21.03;81.29
41334;BME280;27078;46.428;6.256;2023-08-01T08:46:57;95838.03;;;21.10;83.67
41334;BME280;27078;46.428;6.256;2023-08-01T08:49:26;95838.41;;;21.14;81.47
41334;BME280;27078;46.428;6.256;2023-08-01T08:51:52;95843.41;;;21.10;82.29
41334;BME280;27078;46.428;6.256;2023-08-01T08:54:19;95855.38;;;21.08;86.65
41334;BME280;27078;46.428;6.256;2023-08-01T08:56:45;95843.00;;;21.07;91.55
41334;BME280;27078;46.428;6.256;2023-08-01T08:59:11;95835.78;;;21.07;92.80
41334;BME280;27078;46.428;6.256;2023-08-01T09:01:37;95827.50;;;21.09;94.61
41334;BME280;27078;46.428;6.256;2023-08-01T09:04:03;95827.31;;;21.04;93.05
41334;BME280;27078;46.428;6.256;2023-08-01T09:06:34;95838.91;;;21.04;96.77
41334;BME280;27078;46.428;6.256;2023-08-01T09:09:12;95846.72;;;21.06;96.05
41334;BME280;27078;46.428;6.256;2023-08-01T09:11:44;95841.78;;;21.03;94.65
41334;BME280;27078;46.428;6.256;2023-08-01T09:14:10;95827.06;;;21.12;93.57
41334;BME280;27078;46.428;6.256;2023-08-01T09:16:36;95828.50;;;21.14;93.46
41334;BME280;27078;46.428;6.256;2023-08-01T09:19:02;95832.16;;;21.20;93.92
41334;BME280;27078;46.428;6.256;2023-08-01T09:21:31;95843.09;;;21.25;92.78
41334;BME280;27078;46.428;6.256;2023-08-01T09:24:10;95835.66;;;21.21;94.69
41334;BME280;27078;46.428;6.256;2023-08-01T09:26:37;95839.34;;;21.26;96.61
41334;BME280;27078;46.428;6.256;2023-08-01T09:29:03;95846.66;;;21.19;96.56
41334;BME280;27078;46.428;6.256;2023-08-01T09:31:34;95826.00;;;21.20;95.38
41334;BME280;27078;46.428;6.256;2023-08-01T09:34:01;95834.03;;;21.20;95.03
41334;BME280;27078;46.428;6.256;2023-08-01T09:36:26;95823.16;;;21.08;96.65
41334;BME280;27078;46.428;6.256;2023-08-01T09:38:58;95835.97;;;21.12;94.27
41334;BME280;27078;46.428;6.256;2023-08-01T09:41:24;95821.50;;;21.13;94.94
41334;BME280;27078;46.428;6.256;2023-08-01T09:43:49;95828.50;;;21.14;94.31
41334;BME280;27078;46.428;6.256;2023-08-01T09:46:15;95822.69;;;21.18;94.17
41334;BME280;27078;46.428;6.256;2023-08-01T09:48:42;95804.91;;;21.23;86.60
41334;BME280;27078;46.428;6.256;2023-08-01T09:51:15;95804.63;;;21.31;86.59
41334;BME280;27078;46.428;6.256;2023-08-01T09:53:49;95812.03;;;21.36;79.25
41334;BME280;27078;46.428;6.256;2023-08-01T09:56:22;95816.56;;;21.42;79.69
41334;BME280;27078;46.428;6.256;2023-08-01T09:58:49;95824.56;;;21.49;80.75
41334;BME280;27078;46.428;6.256;2023-08-01T10:01:16;95816.81;;;21.59;80.33
41334;BME280;27078;46.428;6.256;2023-08-01T10:03:45;95809.50;;;21.66;79.14
41334;BME280;27078;46.428;6.256;2023-08-01T10:06:14;95817.09;;;21.76;77.33
41334;BME280;27078;46.428;6.256;2023-08-01T10:08:42;95815.00;;;21.96;74.18
41334;BME280;27078;46.428;6.256;2023-08-01T10:11:08;95812.78;;;22.12;74.32
41334;BME280;27078;46.428;6.256;2023-08-01T10:13:34;95809.75;;;22.27;71.68
41334;BME280;27078;46.428;6.256;2023-08-01T10:16:00;95808.81;;;22.33;68.99
41334;BME280;27078;46.428;6.256;2023-08-01T10:18:28;95810.38;;;22.41;68.52
41334;BME280;27078;46.428;6.256;2023-08-01T10:20:54;95795.44;;;22.45;68.37
41334;BME280;27078;46.428;6.256;2023-08-01T10:23:20;95792.25;;;22.36;69.46
41334;BME280;27078;46.428;6.256;2023-08-01T10:25:46;95798.00;;;22.40;70.13
41334;BME280;27078;46.428;6.256;2023-08-01T10:28:12;95788.78;;;22.47;68.89
41334;BME280;27078;46.428;6.256;2023-08-01T10:30:37;95791.63;;;22.52;67.54
41334;BME280;27078;46.428;6.256;2023-08-01T10:33:03;95791.97;;;22.56;69.27
41334;BME280;27078;46.428;6.256;2023-08-01T10:35:46;95797.00;;;22.52;68.45
41334;BME280;27078;46.428;6.256;2023-08-01T10:38:11;95789.88;;;22.58;68.85
41334;BME280;27078;46.428;6.256;2023-08-01T10:40:39;95778.31;;;22.58;66.78
41334;BME280;27078;46.428;6.256;2023-08-01T10:43:05;95779.97;;;22.59;68.14
41334;BME280;27078;46.428;6.256;2023-08-01T10:45:31;95779.81;;;22.53;66.89
41334;BME280;27078;46.428;6.256;2023-08-01T10:48:10;95781.78;;;22.46;68.13
41334;BME280;27078;46.428;6.256;2023-08-01T10:50:36;95771.09;;;22.40;66.32
41334;BME280;27078;46.428;6.256;2023-08-01T10:53:07;95781.56;;;22.29;67.14
41334;BME280;27078;46.428;6.256;2023-08-01T10:55:44;95777.91;;;22.24;67.56
41334;BME280;27078;46.428;6.256;2023-08-01T10:58:10;95785.34;;;22.22;67.31
41334;BME280;27078;46.428;6.256;2023-08-01T11:00:36;95785.22;;;22.16;67.71
41334;BME280;27078;46.428;6.256;2023-08-01T11:03:01;95779.38;;;22.20;67.33
41334;BME280;27078;46.428;6.256;2023-08-01T11:05:26;95778.28;;;22.27;67.46
41334;BME280;27078;46.428;6.256;2023-08-01T11:07:58;95772.34;;;22.37;66.51
41334;BME280;27078;46.428;6.256;2023-08-01T11:10:25;95767.34;;;22.41;66.79
41334;BME280;27078;46.428;6.256;2023-08-01T11:12:51;95764.72;;;22.52;65.61
41334;BME280;27078;46.428;6.256;2023-08-01T11:15:17;95765.00;;;22.63;64.48
41334;BME280;27078;46.428;6.256;2023-08-01T11:17:46;95767.69;;;22.63;64.18
41334;BME280;27078;46.428;6.256;2023-08-01T11:20:12;95765.00;;;22.63;64.19
41334;BME280;27078;46.428;6.256;2023-08-01T11:22:49;95758.78;;;22.62;65.05
41334;BME280;27078;46.428;6.256;2023-08-01T11:25:15;95751.69;;;22.68;65.68
41334;BME280;27078;46.428;6.256;2023-08-01T11:27:40;95746.28;;;22.68;65.93
41334;BME280;27078;46.428;6.256;2023-08-01T11:30:06;95764.72;;;22.83;64.95
41334;BME280;27078;46.428;6.256;2023-08-01T11:32:36;95762.06;;;22.94;65.60
41334;BME280;27078;46.428;6.256;2023-08-01T11:35:02;95772.56;;;22.96;65.22
41334;BME280;27078;46.428;6.256;2023-08-01T11:37:28;95771.34;;;23.10;64.16
41334;BME280;27078;46.428;6.256;2023-08-01T11:39:54;95745.84;;;23.25;62.14
41334;BME280;27078;46.428;6.256;2023-08-01T11:42:19;95748.19;;;23.21;62.75
41334;BME280;27078;46.428;6.256;2023-08-01T11:44:45;95735.53;;;23.10;63.27
41334;BME280;27078;46.428;6.256;2023-08-01T11:47:17;95752.22;;;23.00;64.23
41334;BME280;27078;46.428;6.256;2023-08-01T11:49:47;95746.34;;;22.91;63.67
41334;BME280;27078;46.428;6.256;2023-08-01T11:52:26;95747.75;;;22.82;64.81
41334;BME280;27078;46.428;6.256;2023-08-01T11:54:52;95744.91;;;22.77;64.90
41334;BME280;27078;46.428;6.256;2023-08-01T11:57:19;95738.72;;;22.76;64.18
41334;BME280;27078;46.428;6.256;2023-08-01T11:59:53;95746.13;;;22.93;64.78
41334;BME280;27078;46.428;6.256;2023-08-01T12:02:26;95739.16;;;23.04;63.97
41334;BME280;27078;46.428;6.256;2023-08-01T12:04:53;95734.03;;;23.14;61.30
41334;BME280;27078;46.428;6.256;2023-08-01T12:07:19;95732.16;;;23.26;61.70
41334;BME280;27078;46.428;6.256;2023-08-01T12:09:58;95722.22;;;23.62;62.52
41334;BME280;27078;46.428;6.256;2023-08-01T12:12:24;95725.94;;;23.85;61.00
41334;BME280;27078;46.428;6.256;2023-08-01T12:14:49;95720.19;;;23.93;59.46
41334;BME280;27078;46.428;6.256;2023-08-01T12:17:14;95729.44;;;23.97;60.39
41334;BME280;27078;46.428;6.256;2023-08-01T12:19:40;95737.50;;;24.09;58.67
41334;BME280;27078;46.428;6.256;2023-08-01T12:22:05;95722.53;;;24.30;58.94
41334;BME280;27078;46.428;6.256;2023-08-01T12:24:30;95717.03;;;24.65;58.93
41334;BME280;27078;46.428;6.256;2023-08-01T12:26:56;95719.28;;;24.85;57.67
41334;BME280;27078;46.428;6.256;2023-08-01T12:29:22;95720.53;;;25.28;56.08
41334;BME280;27078;46.428;6.256;2023-08-01T12:31:48;95711.69;;;25.33;54.62
41334;BME280;27078;46.428;6.256;2023-08-01T12:34:14;95710.06;;;25.32;55.33
41334;BME280;27078;46.428;6.256;2023-08-01T12:36:39;95695.06;;;25.24;55.08
41334;BME280;27078;46.428;6.256;2023-08-01T12:39:04;95699.06;;;25.05;55.73
41334;BME280;27078;46.428;6.256;2023-08-01T12:41:35;95702.97;;;24.80;58.23
41334;BME280;27078;46.428;6.256;2023-08-01T12:44:00;95703.53;;;24.65;56.67
41334;BME280;27078;46.428;6.256;2023-08-01T12:46:26;95706.38;;;24.58;60.39
41334;BME280;27078;46.428;6.256;2023-08-01T12:48:51;95704.59;;;24.64;57.95
41334;BME280;27078;46.428;6.256;2023-08-01T12:51:16;95704.91;;;24.68;57.38
41334;BME280;27078;46.428;6.256;2023-08-01T12:53:42;95710.06;;;24.69;59.14
41334;BME280;27078;46.428;6.256;2023-08-01T12:56:07;95710.97;;;24.46;58.29